KTDZ/TDZ METAR and TAF weather

Enter ICAO airport designator
Station Type Date Time Source
KTDZ METAR 2019/06/27 08:53 UTC NOAA

KTDZ 270853Z AUTO 04004KT 10SM SCT065 22/17 A3016 RMK AO2 LTG DSNT NW-NE SLP206 60002 T02170167 53008


Station Type Date Time Source
KTDZ Decoded METAR 2019/06/27 08:53 UTC NOAA

TOLEDO METCALF FIELD, OH, United States (KTDZ) 41-34N 83-29W 189M
Jun 27, 2019 - 04:53 AM EDT / 2019.06.27 0853 UTC
Wind: from the NE (040 degrees) at 5 MPH (4 KT):0
Visibility: 10 mile(s):0
Sky conditions: partly cloudy
Weather: Lightning observed
Temperature: 71.1 F (21.7 C)
Dew Point: 62.1 F (16.7 C)
Relative Humidity: 73%
Pressure (altimeter): 30.16 in. Hg (1021 hPa)
Pressure tendency: 0.02 inches (0.8 hPa) higher than three hours ago
ob: KTDZ 270853Z AUTO 04004KT 10SM SCT065 22/17 A3016 RMK AO2 LTG DSNT NW-NE SLP206 60002 T02170167 53008
cycle: 9

Station Type Date Time Source
KTDZ TAF UTC NOAA

Error!

Example: see airport list